N410VE ESKS-ESNU
Flight info
| Callsign | N410VE |
|---|---|
| Flight time | 1h 31m |
| Altitude | 23000 |
| Route | BATOV ETOMI T89 EDAXA M607 LENSO |
| Aircraft | C208/L-V/N |
Departure
| Time | 2026-05-07 17:40 |
|---|---|
| Airport | Scandinavian Mountains Airport (ESKS) |
Arrival
| Time | 2026-05-07 19:11 |
|---|---|
| Airport | Umeå Airport (ESNU) |
| Time | Latitude | Longitude | Altitude | Speed | Heading |
|---|---|---|---|---|---|
| 2026-05-07 17:17 | 61.15808 | 12.83787 | 1646 ft | 0 kts | 146° |
| 2026-05-07 17:37 | 61.15794 | 12.83810 | 1647 ft | 5 kts | 117° |
| 2026-05-07 17:37 | 61.15784 | 12.83890 | 1647 ft | 10 kts | 147° |
| 2026-05-07 17:37 | 61.15713 | 12.83991 | 1645 ft | 11 kts | 142° |
| 2026-05-07 17:38 | 61.15725 | 12.84120 | 1647 ft | 12 kts | 54° |
| 2026-05-07 17:38 | 61.15776 | 12.84281 | 1650 ft | 16 kts | 45° |
| 2026-05-07 17:38 | 61.15834 | 12.84284 | 1650 ft | 0 kts | 324° |
| 2026-05-07 17:39 | 61.15858 | 12.84252 | 1650 ft | 16 kts | 327° |
| 2026-05-07 17:39 | 61.16079 | 12.83953 | 1653 ft | 60 kts | 326° |
| 2026-05-07 17:40 | 61.16526 | 12.83354 | 1718 ft | 84 kts | 323° |
| 2026-05-07 17:40 | 61.17051 | 12.82652 | 1888 ft | 93 kts | 317° |
| 2026-05-07 17:40 | 61.17624 | 12.81943 | 2161 ft | 99 kts | 328° |
| 2026-05-07 17:40 | 61.18242 | 12.81227 | 2423 ft | 105 kts | 326° |
| 2026-05-07 17:41 | 61.18917 | 12.80541 | 2670 ft | 114 kts | 350° |
| 2026-05-07 17:41 | 61.19636 | 12.81216 | 2886 ft | 125 kts | 55° |
| 2026-05-07 17:41 | 61.19831 | 12.82969 | 3122 ft | 128 kts | 98° |
| 2026-05-07 17:41 | 61.19493 | 12.84667 | 3399 ft | 128 kts | 115° |
| 2026-05-07 17:42 | 61.19148 | 12.86367 | 3669 ft | 128 kts | 114° |
| 2026-05-07 17:42 | 61.18790 | 12.88068 | 3934 ft | 130 kts | 114° |
| 2026-05-07 17:42 | 61.18432 | 12.89763 | 4195 ft | 130 kts | 114° |
| 2026-05-07 17:42 | 61.18066 | 12.91493 | 4461 ft | 130 kts | 114° |
| 2026-05-07 17:43 | 61.17704 | 12.93207 | 4725 ft | 130 kts | 114° |
| 2026-05-07 17:43 | 61.17347 | 12.94894 | 4984 ft | 128 kts | 114° |
| 2026-05-07 17:43 | 61.16991 | 12.96575 | 5201 ft | 127 kts | 114° |
| 2026-05-07 17:43 | 61.16633 | 12.98271 | 5462 ft | 129 kts | 114° |
| 2026-05-07 17:44 | 61.16277 | 12.99963 | 5721 ft | 126 kts | 114° |
| 2026-05-07 17:44 | 61.15929 | 13.01598 | 5974 ft | 122 kts | 115° |
| 2026-05-07 17:44 | 61.15585 | 13.03203 | 6241 ft | 122 kts | 114° |
| 2026-05-07 17:44 | 61.15247 | 13.04822 | 6503 ft | 122 kts | 114° |
| 2026-05-07 17:45 | 61.14902 | 13.06445 | 6754 ft | 124 kts | 115° |
| 2026-05-07 17:45 | 61.14671 | 13.07525 | 6920 ft | 124 kts | 115° |
| 2026-05-07 17:45 | 61.14208 | 13.09712 | 7261 ft | 125 kts | 116° |
| 2026-05-07 17:45 | 61.13857 | 13.11357 | 7519 ft | 125 kts | 115° |
| 2026-05-07 17:46 | 61.13504 | 13.13011 | 7802 ft | 126 kts | 116° |
| 2026-05-07 17:46 | 61.13148 | 13.14682 | 8025 ft | 128 kts | 115° |
| 2026-05-07 17:46 | 61.12784 | 13.16384 | 8242 ft | 129 kts | 116° |
| 2026-05-07 17:46 | 61.12415 | 13.18112 | 8458 ft | 133 kts | 116° |
| 2026-05-07 17:47 | 61.12038 | 13.19874 | 8673 ft | 135 kts | 116° |
| 2026-05-07 17:47 | 61.11653 | 13.21673 | 8892 ft | 138 kts | 116° |
| 2026-05-07 17:47 | 61.11260 | 13.23504 | 9114 ft | 140 kts | 116° |
| 2026-05-07 17:47 | 61.10865 | 13.25350 | 9334 ft | 141 kts | 116° |
| 2026-05-07 17:48 | 61.10472 | 13.27183 | 9555 ft | 142 kts | 117° |
| 2026-05-07 17:48 | 61.10066 | 13.29079 | 9790 ft | 143 kts | 117° |
| 2026-05-07 17:48 | 61.09667 | 13.30931 | 9997 ft | 143 kts | 117° |
| 2026-05-07 17:48 | 61.09260 | 13.32825 | 10198 ft | 145 kts | 117° |
| 2026-05-07 17:49 | 61.08846 | 13.34747 | 10398 ft | 147 kts | 117° |
| 2026-05-07 17:49 | 61.08423 | 13.36710 | 10601 ft | 148 kts | 116° |
| 2026-05-07 17:49 | 61.08007 | 13.38639 | 10804 ft | 150 kts | 116° |
| 2026-05-07 17:49 | 61.07583 | 13.40607 | 11007 ft | 150 kts | 116° |
| 2026-05-07 17:50 | 61.07157 | 13.42579 | 11207 ft | 151 kts | 116° |
| 2026-05-07 17:50 | 61.06728 | 13.44561 | 11412 ft | 151 kts | 116° |
| 2026-05-07 17:50 | 61.06299 | 13.46545 | 11617 ft | 152 kts | 116° |
| 2026-05-07 17:50 | 61.05872 | 13.48545 | 11825 ft | 152 kts | 113° |
| 2026-05-07 17:51 | 61.05787 | 13.50707 | 12037 ft | 153 kts | 76° |
| 2026-05-07 17:51 | 61.06223 | 13.52670 | 12254 ft | 150 kts | 47° |
| 2026-05-07 17:51 | 61.06866 | 13.54356 | 12468 ft | 150 kts | 48° |
| 2026-05-07 17:51 | 61.07495 | 13.56087 | 12689 ft | 151 kts | 47° |
| 2026-05-07 17:52 | 61.08130 | 13.57810 | 12899 ft | 151 kts | 47° |
| 2026-05-07 17:52 | 61.08768 | 13.59541 | 13117 ft | 152 kts | 46° |
| 2026-05-07 17:52 | 61.09409 | 13.61280 | 13334 ft | 152 kts | 46° |
| 2026-05-07 17:52 | 61.10052 | 13.63026 | 13559 ft | 153 kts | 46° |
| 2026-05-07 17:53 | 61.10697 | 13.64781 | 13781 ft | 154 kts | 45° |
| 2026-05-07 17:53 | 61.11345 | 13.66544 | 13993 ft | 155 kts | 45° |
| 2026-05-07 17:53 | 61.11999 | 13.68324 | 14189 ft | 155 kts | 45° |
| 2026-05-07 17:53 | 61.12652 | 13.70104 | 14387 ft | 156 kts | 45° |
| 2026-05-07 17:54 | 61.13307 | 13.71890 | 14583 ft | 156 kts | 45° |
| 2026-05-07 17:54 | 61.13956 | 13.73663 | 14782 ft | 156 kts | 45° |
| 2026-05-07 17:54 | 61.14615 | 13.75459 | 14982 ft | 157 kts | 45° |
| 2026-05-07 17:54 | 61.15277 | 13.77268 | 15183 ft | 157 kts | 44° |
| 2026-05-07 17:55 | 61.15937 | 13.79076 | 15392 ft | 158 kts | 44° |
| 2026-05-07 17:55 | 61.16606 | 13.80902 | 15555 ft | 161 kts | 44° |
| 2026-05-07 17:55 | 61.17287 | 13.82768 | 15715 ft | 164 kts | 44° |
| 2026-05-07 17:55 | 61.17980 | 13.84667 | 15873 ft | 167 kts | 44° |
| 2026-05-07 17:56 | 61.18687 | 13.86608 | 16010 ft | 171 kts | 44° |
| 2026-05-07 17:56 | 61.19408 | 13.88586 | 16149 ft | 173 kts | 44° |
| 2026-05-07 17:56 | 61.20140 | 13.90600 | 16287 ft | 176 kts | 44° |
| 2026-05-07 17:56 | 61.20882 | 13.92641 | 16446 ft | 179 kts | 45° |
| 2026-05-07 17:57 | 61.21633 | 13.94712 | 16587 ft | 180 kts | 44° |
| 2026-05-07 17:57 | 61.22134 | 13.96093 | 16683 ft | 181 kts | 44° |
| 2026-05-07 17:57 | 61.23150 | 13.98898 | 16865 ft | 182 kts | 45° |
| 2026-05-07 17:57 | 61.23915 | 14.01009 | 17003 ft | 183 kts | 44° |
| 2026-05-07 17:58 | 61.24684 | 14.03136 | 17138 ft | 185 kts | 45° |
| 2026-05-07 17:58 | 61.25459 | 14.05280 | 17281 ft | 186 kts | 44° |
| 2026-05-07 17:58 | 61.26239 | 14.07437 | 17419 ft | 187 kts | 44° |
| 2026-05-07 17:58 | 61.27022 | 14.09609 | 17558 ft | 188 kts | 44° |
| 2026-05-07 17:59 | 61.27809 | 14.11792 | 17702 ft | 189 kts | 44° |
| 2026-05-07 17:59 | 61.28601 | 14.13988 | 17841 ft | 190 kts | 44° |
| 2026-05-07 17:59 | 61.29384 | 14.16167 | 17979 ft | 191 kts | 44° |
| 2026-05-07 17:59 | 61.30177 | 14.18374 | 18118 ft | 191 kts | 44° |
| 2026-05-07 18:00 | 61.30970 | 14.20584 | 18237 ft | 191 kts | 44° |
| 2026-05-07 18:00 | 61.31767 | 14.22803 | 18397 ft | 192 kts | 44° |
| 2026-05-07 18:00 | 61.32565 | 14.25033 | 18523 ft | 192 kts | 44° |
| 2026-05-07 18:00 | 61.33364 | 14.27265 | 18642 ft | 192 kts | 43° |
| 2026-05-07 18:01 | 61.34162 | 14.29494 | 18766 ft | 192 kts | 43° |
| 2026-05-07 18:01 | 61.34963 | 14.31735 | 18887 ft | 193 kts | 43° |
| 2026-05-07 18:01 | 61.35764 | 14.33978 | 19008 ft | 193 kts | 43° |
| 2026-05-07 18:01 | 61.36564 | 14.36220 | 19132 ft | 193 kts | 43° |
| 2026-05-07 18:02 | 61.38167 | 14.40722 | 19377 ft | 193 kts | 42° |
| 2026-05-07 18:02 | 61.38967 | 14.42972 | 19497 ft | 193 kts | 42° |
| 2026-05-07 18:02 | 61.39768 | 14.45226 | 19628 ft | 194 kts | 42° |
| 2026-05-07 18:03 | 61.40571 | 14.47478 | 19753 ft | 193 kts | 42° |
| 2026-05-07 18:03 | 61.41369 | 14.49739 | 19879 ft | 193 kts | 42° |
| 2026-05-07 18:03 | 61.42168 | 14.51995 | 20003 ft | 194 kts | 41° |
| 2026-05-07 18:03 | 61.42968 | 14.54256 | 20130 ft | 193 kts | 41° |
| 2026-05-07 18:04 | 61.43770 | 14.56523 | 20253 ft | 194 kts | 41° |
| 2026-05-07 18:04 | 61.44571 | 14.58789 | 20414 ft | 193 kts | 39° |
| 2026-05-07 18:04 | 61.45363 | 14.61023 | 20539 ft | 194 kts | 40° |
| 2026-05-07 18:04 | 61.46163 | 14.63301 | 20672 ft | 195 kts | 40° |
| 2026-05-07 18:05 | 61.46967 | 14.65587 | 20805 ft | 195 kts | 40° |
| 2026-05-07 18:05 | 61.47768 | 14.67864 | 20938 ft | 195 kts | 40° |
| 2026-05-07 18:05 | 61.48572 | 14.70148 | 21065 ft | 195 kts | 40° |
| 2026-05-07 18:05 | 61.49375 | 14.72436 | 21198 ft | 195 kts | 39° |
| 2026-05-07 18:06 | 61.50175 | 14.74719 | 21325 ft | 194 kts | 39° |
| 2026-05-07 18:06 | 61.50973 | 14.76991 | 21456 ft | 193 kts | 39° |
| 2026-05-07 18:06 | 61.51767 | 14.79262 | 21589 ft | 193 kts | 39° |
| 2026-05-07 18:06 | 61.52561 | 14.81537 | 21715 ft | 193 kts | 39° |
| 2026-05-07 18:07 | 61.53356 | 14.83809 | 21854 ft | 194 kts | 38° |
| 2026-05-07 18:07 | 61.54152 | 14.86089 | 21988 ft | 194 kts | 38° |
| 2026-05-07 18:07 | 61.54946 | 14.88368 | 22123 ft | 193 kts | 38° |
| 2026-05-07 18:07 | 61.55740 | 14.90645 | 22259 ft | 193 kts | 38° |
| 2026-05-07 18:08 | 61.56532 | 14.92920 | 22396 ft | 193 kts | 38° |
| 2026-05-07 18:08 | 61.57322 | 14.95193 | 22532 ft | 193 kts | 38° |
| 2026-05-07 18:08 | 61.58115 | 14.97467 | 22674 ft | 193 kts | 37° |
| 2026-05-07 18:08 | 61.58903 | 14.99745 | 22808 ft | 193 kts | 37° |
| 2026-05-07 18:09 | 61.59694 | 15.02015 | 22959 ft | 192 kts | 36° |
| 2026-05-07 18:09 | 61.60469 | 15.04265 | 23062 ft | 194 kts | 36° |
| 2026-05-07 18:09 | 61.61281 | 15.06593 | 23069 ft | 200 kts | 36° |
| 2026-05-07 18:09 | 61.62112 | 15.08991 | 23082 ft | 206 kts | 38° |
| 2026-05-07 18:10 | 61.62955 | 15.11456 | 23075 ft | 210 kts | 38° |
| 2026-05-07 18:10 | 61.63820 | 15.13965 | 23076 ft | 213 kts | 38° |
| 2026-05-07 18:10 | 61.64697 | 15.16506 | 23072 ft | 216 kts | 38° |
| 2026-05-07 18:10 | 61.65579 | 15.19072 | 23077 ft | 218 kts | 39° |
| 2026-05-07 18:11 | 61.66473 | 15.21675 | 23067 ft | 220 kts | 41° |
| 2026-05-07 18:11 | 61.67059 | 15.23409 | 23067 ft | 220 kts | 39° |
| 2026-05-07 18:11 | 61.68273 | 15.26916 | 23073 ft | 224 kts | 39° |
| 2026-05-07 18:11 | 61.69189 | 15.29587 | 23074 ft | 225 kts | 39° |
| 2026-05-07 18:12 | 61.70107 | 15.32264 | 23071 ft | 224 kts | 38° |
| 2026-05-07 18:12 | 61.71091 | 15.34751 | 23074 ft | 220 kts | 33° |
| 2026-05-07 18:12 | 61.72078 | 15.37240 | 23075 ft | 223 kts | 36° |
| 2026-05-07 18:12 | 61.73034 | 15.39845 | 23073 ft | 225 kts | 38° |
| 2026-05-07 18:13 | 61.73986 | 15.42467 | 23071 ft | 225 kts | 37° |
| 2026-05-07 18:13 | 61.74930 | 15.45042 | 23073 ft | 225 kts | 37° |
| 2026-05-07 18:13 | 61.75890 | 15.47648 | 23070 ft | 225 kts | 37° |
| 2026-05-07 18:13 | 61.76851 | 15.50264 | 23071 ft | 225 kts | 37° |
| 2026-05-07 18:14 | 61.77812 | 15.52886 | 23073 ft | 226 kts | 37° |
| 2026-05-07 18:14 | 61.78772 | 15.55512 | 23072 ft | 226 kts | 37° |
| 2026-05-07 18:14 | 61.79732 | 15.58137 | 23070 ft | 226 kts | 37° |
| 2026-05-07 18:14 | 61.80694 | 15.60769 | 23069 ft | 226 kts | 37° |
| 2026-05-07 18:15 | 61.81652 | 15.63400 | 23072 ft | 226 kts | 37° |
| 2026-05-07 18:15 | 61.82610 | 15.66027 | 23071 ft | 226 kts | 37° |
| 2026-05-07 18:15 | 61.83570 | 15.68664 | 23071 ft | 226 kts | 37° |
| 2026-05-07 18:15 | 61.84528 | 15.71300 | 23071 ft | 226 kts | 37° |
| 2026-05-07 18:16 | 61.85484 | 15.73934 | 23069 ft | 225 kts | 37° |
| 2026-05-07 18:16 | 61.86439 | 15.76565 | 23077 ft | 226 kts | 37° |
| 2026-05-07 18:16 | 61.87395 | 15.79204 | 23075 ft | 226 kts | 37° |
| 2026-05-07 18:16 | 61.88351 | 15.81846 | 23076 ft | 226 kts | 38° |
| 2026-05-07 18:17 | 61.89309 | 15.84496 | 23077 ft | 227 kts | 38° |
| 2026-05-07 18:17 | 61.90268 | 15.87154 | 23076 ft | 227 kts | 38° |
| 2026-05-07 18:17 | 61.91226 | 15.89811 | 23117 ft | 228 kts | 37° |
| 2026-05-07 18:17 | 61.92191 | 15.92493 | 23085 ft | 228 kts | 37° |
| 2026-05-07 18:18 | 61.93153 | 15.95166 | 23085 ft | 228 kts | 37° |
| 2026-05-07 18:18 | 61.94119 | 15.97825 | 23088 ft | 226 kts | 34° |
| 2026-05-07 18:18 | 61.95087 | 16.00476 | 23084 ft | 228 kts | 37° |
| 2026-05-07 18:18 | 61.96026 | 16.03183 | 23084 ft | 227 kts | 37° |
| 2026-05-07 18:19 | 61.96965 | 16.05819 | 23088 ft | 226 kts | 36° |
| 2026-05-07 18:19 | 61.97921 | 16.08469 | 23087 ft | 226 kts | 36° |
| 2026-05-07 18:19 | 61.98874 | 16.11128 | 23087 ft | 226 kts | 36° |
| 2026-05-07 18:19 | 61.99823 | 16.13792 | 23086 ft | 226 kts | 36° |
| 2026-05-07 18:20 | 62.00770 | 16.16454 | 23083 ft | 225 kts | 36° |
| 2026-05-07 18:20 | 62.01713 | 16.19102 | 23082 ft | 224 kts | 36° |
| 2026-05-07 18:20 | 62.02652 | 16.21746 | 23080 ft | 223 kts | 36° |
| 2026-05-07 18:20 | 62.03587 | 16.24374 | 23080 ft | 223 kts | 36° |
| 2026-05-07 18:21 | 62.04523 | 16.27010 | 23075 ft | 223 kts | 36° |
| 2026-05-07 18:21 | 62.05458 | 16.29648 | 23074 ft | 224 kts | 37° |
| 2026-05-07 18:21 | 62.06398 | 16.32292 | 23073 ft | 224 kts | 36° |
| 2026-05-07 18:21 | 62.07334 | 16.34945 | 23074 ft | 224 kts | 37° |
| 2026-05-07 18:22 | 62.08267 | 16.37598 | 23080 ft | 224 kts | 36° |
| 2026-05-07 18:22 | 62.08572 | 16.38460 | 23080 ft | 223 kts | 36° |
| 2026-05-07 18:22 | 62.10137 | 16.42898 | 23080 ft | 223 kts | 36° |
| 2026-05-07 18:22 | 62.11070 | 16.45552 | 23079 ft | 223 kts | 36° |
| 2026-05-07 18:23 | 62.11999 | 16.48197 | 23082 ft | 222 kts | 36° |
| 2026-05-07 18:23 | 62.12927 | 16.50837 | 23082 ft | 223 kts | 37° |
| 2026-05-07 18:23 | 62.13857 | 16.53486 | 23081 ft | 223 kts | 37° |
| 2026-05-07 18:23 | 62.14787 | 16.56143 | 23095 ft | 224 kts | 36° |
| 2026-05-07 18:24 | 62.15722 | 16.58815 | 23091 ft | 224 kts | 36° |
| 2026-05-07 18:24 | 62.16656 | 16.61487 | 23094 ft | 224 kts | 36° |
| 2026-05-07 18:24 | 62.17585 | 16.64154 | 23089 ft | 223 kts | 36° |
| 2026-05-07 18:24 | 62.18513 | 16.66816 | 23091 ft | 223 kts | 36° |
| 2026-05-07 18:25 | 62.19438 | 16.69472 | 23098 ft | 223 kts | 36° |
| 2026-05-07 18:25 | 62.20441 | 16.71747 | 23096 ft | 200 kts | 14° |
| 2026-05-07 18:25 | 62.21608 | 16.73228 | 23100 ft | 197 kts | 13° |
| 2026-05-07 18:25 | 62.22747 | 16.74956 | 23099 ft | 204 kts | 19° |
| 2026-05-07 18:26 | 62.23859 | 16.76897 | 23100 ft | 207 kts | 21° |
| 2026-05-07 18:26 | 62.24969 | 16.78848 | 23099 ft | 206 kts | 20° |
| 2026-05-07 18:26 | 62.26079 | 16.80769 | 23100 ft | 205 kts | 20° |
| 2026-05-07 18:26 | 62.27193 | 16.82688 | 23091 ft | 205 kts | 20° |
| 2026-05-07 18:27 | 62.28304 | 16.84607 | 23087 ft | 205 kts | 20° |
| 2026-05-07 18:27 | 62.29413 | 16.86527 | 23092 ft | 205 kts | 20° |
| 2026-05-07 18:27 | 62.30527 | 16.88453 | 23094 ft | 206 kts | 20° |
| 2026-05-07 18:27 | 62.31266 | 16.89734 | 23089 ft | 206 kts | 20° |
| 2026-05-07 18:28 | 62.32383 | 16.91678 | 23099 ft | 206 kts | 20° |
| 2026-05-07 18:28 | 62.33498 | 16.93622 | 23097 ft | 206 kts | 20° |
| 2026-05-07 18:28 | 62.34610 | 16.95556 | 23100 ft | 205 kts | 20° |
| 2026-05-07 18:28 | 62.35722 | 16.97487 | 23090 ft | 206 kts | 20° |
| 2026-05-07 18:29 | 62.36835 | 16.99423 | 23085 ft | 206 kts | 20° |
| 2026-05-07 18:29 | 62.37945 | 17.01361 | 23085 ft | 205 kts | 20° |
| 2026-05-07 18:29 | 62.39056 | 17.03302 | 23082 ft | 205 kts | 20° |
| 2026-05-07 18:29 | 62.40171 | 17.05245 | 23098 ft | 207 kts | 21° |
| 2026-05-07 18:30 | 62.41289 | 17.07211 | 23099 ft | 207 kts | 22° |
| 2026-05-07 18:30 | 62.42403 | 17.09162 | 23097 ft | 205 kts | 21° |
| 2026-05-07 18:30 | 62.43512 | 17.11101 | 23098 ft | 204 kts | 21° |
| 2026-05-07 18:30 | 62.44617 | 17.13037 | 23096 ft | 204 kts | 21° |
| 2026-05-07 18:31 | 62.45718 | 17.14970 | 23091 ft | 204 kts | 22° |
| 2026-05-07 18:31 | 62.46818 | 17.16908 | 23091 ft | 204 kts | 21° |
| 2026-05-07 18:31 | 62.47918 | 17.18841 | 23089 ft | 204 kts | 21° |
| 2026-05-07 18:31 | 62.49003 | 17.20750 | 23090 ft | 203 kts | 21° |
| 2026-05-07 18:32 | 62.50098 | 17.22682 | 23089 ft | 203 kts | 21° |
| 2026-05-07 18:32 | 62.51194 | 17.24620 | 23093 ft | 204 kts | 22° |
| 2026-05-07 18:32 | 62.52292 | 17.26559 | 23092 ft | 203 kts | 21° |
| 2026-05-07 18:32 | 62.53387 | 17.28494 | 23094 ft | 203 kts | 21° |
| 2026-05-07 18:33 | 62.54481 | 17.30431 | 23091 ft | 203 kts | 21° |
| 2026-05-07 18:33 | 62.55573 | 17.32368 | 23089 ft | 202 kts | 21° |
| 2026-05-07 18:33 | 62.56662 | 17.34299 | 23091 ft | 202 kts | 21° |
| 2026-05-07 18:33 | 62.57746 | 17.36224 | 23094 ft | 201 kts | 21° |
| 2026-05-07 18:34 | 62.58832 | 17.38154 | 23088 ft | 202 kts | 21° |
| 2026-05-07 18:34 | 62.59916 | 17.40082 | 23089 ft | 201 kts | 21° |
| 2026-05-07 18:34 | 62.61001 | 17.42012 | 23093 ft | 202 kts | 21° |
| 2026-05-07 18:34 | 62.62093 | 17.43955 | 23091 ft | 203 kts | 22° |
| 2026-05-07 18:35 | 62.63200 | 17.45920 | 22971 ft | 208 kts | 22° |
| 2026-05-07 18:35 | 62.64333 | 17.47940 | 22840 ft | 213 kts | 23° |
| 2026-05-07 18:35 | 62.65492 | 17.50011 | 22749 ft | 217 kts | 25° |
| 2026-05-07 18:35 | 62.66662 | 17.52110 | 22613 ft | 219 kts | 25° |
| 2026-05-07 18:36 | 62.67839 | 17.54247 | 22478 ft | 221 kts | 25° |
| 2026-05-07 18:36 | 62.69033 | 17.56371 | 22343 ft | 222 kts | 25° |
| 2026-05-07 18:36 | 62.70213 | 17.58476 | 22206 ft | 223 kts | 26° |
| 2026-05-07 18:36 | 62.71414 | 17.60639 | 22064 ft | 224 kts | 26° |
| 2026-05-07 18:37 | 62.72612 | 17.62801 | 21924 ft | 223 kts | 26° |
| 2026-05-07 18:37 | 62.73810 | 17.64959 | 21785 ft | 223 kts | 26° |
| 2026-05-07 18:37 | 62.75009 | 17.67119 | 21647 ft | 224 kts | 26° |
| 2026-05-07 18:37 | 62.76208 | 17.69284 | 21513 ft | 224 kts | 26° |
| 2026-05-07 18:38 | 62.77410 | 17.71456 | 21374 ft | 224 kts | 27° |
| 2026-05-07 18:38 | 62.78609 | 17.73625 | 21238 ft | 224 kts | 27° |
| 2026-05-07 18:38 | 62.79806 | 17.75794 | 21101 ft | 224 kts | 27° |
| 2026-05-07 18:38 | 62.81004 | 17.77965 | 20967 ft | 223 kts | 27° |
| 2026-05-07 18:39 | 62.82198 | 17.80131 | 20832 ft | 223 kts | 27° |
| 2026-05-07 18:39 | 62.83393 | 17.82299 | 20702 ft | 223 kts | 27° |
| 2026-05-07 18:39 | 62.84587 | 17.84473 | 20573 ft | 223 kts | 28° |
| 2026-05-07 18:39 | 62.85778 | 17.86644 | 20426 ft | 222 kts | 27° |
| 2026-05-07 18:40 | 62.86966 | 17.88805 | 20308 ft | 222 kts | 28° |
| 2026-05-07 18:40 | 62.88152 | 17.90972 | 20179 ft | 222 kts | 28° |
| 2026-05-07 18:40 | 62.89343 | 17.93147 | 20047 ft | 223 kts | 28° |
| 2026-05-07 18:40 | 62.90532 | 17.95319 | 19921 ft | 223 kts | 28° |
| 2026-05-07 18:41 | 62.91703 | 17.97461 | 19833 ft | 222 kts | 30° |
| 2026-05-07 18:41 | 62.92887 | 17.99636 | 19704 ft | 221 kts | 30° |
| 2026-05-07 18:41 | 62.94066 | 18.01800 | 19575 ft | 220 kts | 30° |
| 2026-05-07 18:41 | 62.95239 | 18.03954 | 19441 ft | 220 kts | 31° |
| 2026-05-07 18:42 | 62.96413 | 18.06111 | 19315 ft | 219 kts | 31° |
| 2026-05-07 18:42 | 62.97584 | 18.08266 | 19188 ft | 220 kts | 31° |
| 2026-05-07 18:42 | 62.98753 | 18.10420 | 19062 ft | 219 kts | 31° |
| 2026-05-07 18:42 | 62.99919 | 18.12571 | 18938 ft | 219 kts | 31° |
| 2026-05-07 18:43 | 63.01083 | 18.14725 | 18809 ft | 218 kts | 31° |
| 2026-05-07 18:43 | 63.02244 | 18.16871 | 18685 ft | 217 kts | 31° |
| 2026-05-07 18:43 | 63.03401 | 18.19010 | 18562 ft | 217 kts | 32° |
| 2026-05-07 18:43 | 63.04556 | 18.21152 | 18433 ft | 217 kts | 32° |
| 2026-05-07 18:44 | 63.05712 | 18.23294 | 18288 ft | 217 kts | 32° |
| 2026-05-07 18:44 | 63.06862 | 18.25431 | 18146 ft | 216 kts | 32° |
| 2026-05-07 18:44 | 63.08011 | 18.27565 | 17997 ft | 216 kts | 32° |
| 2026-05-07 18:44 | 63.09159 | 18.29699 | 17857 ft | 215 kts | 32° |
| 2026-05-07 18:45 | 63.10306 | 18.31835 | 17715 ft | 215 kts | 32° |
| 2026-05-07 18:45 | 63.11449 | 18.33969 | 17568 ft | 215 kts | 32° |
| 2026-05-07 18:45 | 63.12593 | 18.36102 | 17435 ft | 215 kts | 32° |
| 2026-05-07 18:45 | 63.13736 | 18.38237 | 17293 ft | 215 kts | 33° |
| 2026-05-07 18:46 | 63.14861 | 18.40345 | 17153 ft | 214 kts | 33° |
| 2026-05-07 18:46 | 63.15998 | 18.42472 | 17012 ft | 214 kts | 33° |
| 2026-05-07 18:46 | 63.17132 | 18.44594 | 16896 ft | 213 kts | 35° |
| 2026-05-07 18:46 | 63.18261 | 18.46728 | 16759 ft | 213 kts | 34° |
| 2026-05-07 18:47 | 63.19391 | 18.48843 | 16617 ft | 212 kts | 34° |
| 2026-05-07 18:47 | 63.20521 | 18.50960 | 16480 ft | 212 kts | 34° |
| 2026-05-07 18:47 | 63.21647 | 18.53081 | 16344 ft | 212 kts | 34° |
| 2026-05-07 18:47 | 63.22773 | 18.55204 | 16207 ft | 212 kts | 35° |
| 2026-05-07 18:48 | 63.23894 | 18.57319 | 16069 ft | 211 kts | 35° |
| 2026-05-07 18:48 | 63.25014 | 18.59435 | 15936 ft | 211 kts | 35° |
| 2026-05-07 18:48 | 63.26131 | 18.61553 | 15800 ft | 211 kts | 35° |
| 2026-05-07 18:48 | 63.27249 | 18.63661 | 15666 ft | 210 kts | 35° |
| 2026-05-07 18:49 | 63.28347 | 18.65741 | 15535 ft | 210 kts | 35° |
| 2026-05-07 18:49 | 63.29474 | 18.67879 | 15403 ft | 210 kts | 35° |
| 2026-05-07 18:49 | 63.30570 | 18.69959 | 15271 ft | 209 kts | 35° |
| 2026-05-07 18:49 | 63.31679 | 18.72067 | 15137 ft | 209 kts | 35° |
| 2026-05-07 18:50 | 63.32784 | 18.74168 | 15007 ft | 209 kts | 35° |
| 2026-05-07 18:50 | 63.33887 | 18.76272 | 14871 ft | 208 kts | 35° |
| 2026-05-07 18:50 | 63.34987 | 18.78369 | 14744 ft | 208 kts | 35° |
| 2026-05-07 18:50 | 63.36089 | 18.80469 | 14614 ft | 208 kts | 35° |
| 2026-05-07 18:51 | 63.37182 | 18.82556 | 14484 ft | 206 kts | 35° |
| 2026-05-07 18:51 | 63.38270 | 18.84637 | 14363 ft | 206 kts | 35° |
| 2026-05-07 18:51 | 63.39352 | 18.86710 | 14227 ft | 205 kts | 35° |
| 2026-05-07 18:51 | 63.40428 | 18.88771 | 14102 ft | 204 kts | 35° |
| 2026-05-07 18:52 | 63.41505 | 18.90838 | 13973 ft | 203 kts | 35° |
| 2026-05-07 18:52 | 63.42579 | 18.92900 | 13835 ft | 203 kts | 35° |
| 2026-05-07 18:52 | 63.43650 | 18.94960 | 13695 ft | 203 kts | 36° |
| 2026-05-07 18:52 | 63.44718 | 18.97017 | 13557 ft | 203 kts | 36° |
| 2026-05-07 18:53 | 63.45787 | 18.99073 | 13412 ft | 202 kts | 35° |
| 2026-05-07 18:53 | 63.46853 | 19.01129 | 13271 ft | 202 kts | 36° |
| 2026-05-07 18:53 | 63.47915 | 19.03177 | 13133 ft | 201 kts | 36° |
| 2026-05-07 18:53 | 63.48977 | 19.05230 | 12992 ft | 201 kts | 36° |
| 2026-05-07 18:54 | 63.50037 | 19.07279 | 12857 ft | 201 kts | 36° |
| 2026-05-07 18:54 | 63.51095 | 19.09328 | 12718 ft | 201 kts | 36° |
| 2026-05-07 18:54 | 63.52149 | 19.11372 | 12581 ft | 200 kts | 36° |
| 2026-05-07 18:54 | 63.53201 | 19.13412 | 12445 ft | 200 kts | 36° |
| 2026-05-07 18:55 | 63.54237 | 19.15424 | 12312 ft | 200 kts | 36° |
| 2026-05-07 18:55 | 63.55286 | 19.17464 | 12177 ft | 199 kts | 36° |
| 2026-05-07 18:55 | 63.56334 | 19.19501 | 12042 ft | 199 kts | 36° |
| 2026-05-07 18:55 | 63.57380 | 19.21538 | 11909 ft | 199 kts | 36° |
| 2026-05-07 18:56 | 63.58426 | 19.23579 | 11772 ft | 199 kts | 36° |
| 2026-05-07 18:56 | 63.59469 | 19.25614 | 11641 ft | 198 kts | 36° |
| 2026-05-07 18:56 | 63.60511 | 19.27649 | 11509 ft | 198 kts | 36° |
| 2026-05-07 18:56 | 63.61548 | 19.29675 | 11376 ft | 197 kts | 36° |
| 2026-05-07 18:57 | 63.62577 | 19.31690 | 11240 ft | 195 kts | 36° |
| 2026-05-07 18:57 | 63.63597 | 19.33689 | 11106 ft | 194 kts | 36° |
| 2026-05-07 18:57 | 63.64609 | 19.35676 | 10977 ft | 193 kts | 36° |
| 2026-05-07 18:57 | 63.65651 | 19.37557 | 10848 ft | 191 kts | 30° |
| 2026-05-07 18:58 | 63.66721 | 19.39265 | 10725 ft | 187 kts | 30° |
| 2026-05-07 18:58 | 63.67762 | 19.41021 | 10495 ft | 187 kts | 31° |
| 2026-05-07 18:58 | 63.68789 | 19.42801 | 10236 ft | 185 kts | 31° |
| 2026-05-07 18:58 | 63.69808 | 19.44563 | 9979 ft | 184 kts | 31° |
| 2026-05-07 18:59 | 63.70823 | 19.46319 | 9701 ft | 183 kts | 31° |
| 2026-05-07 18:59 | 63.71836 | 19.48069 | 9426 ft | 183 kts | 31° |
| 2026-05-07 18:59 | 63.72844 | 19.49814 | 9149 ft | 182 kts | 32° |
| 2026-05-07 18:59 | 63.73849 | 19.51559 | 8872 ft | 182 kts | 32° |
| 2026-05-07 19:00 | 63.74851 | 19.53294 | 8605 ft | 182 kts | 32° |
| 2026-05-07 19:00 | 63.75839 | 19.55009 | 8347 ft | 181 kts | 32° |
| 2026-05-07 19:00 | 63.76836 | 19.56742 | 8077 ft | 181 kts | 32° |
| 2026-05-07 19:00 | 63.77835 | 19.58481 | 7813 ft | 181 kts | 32° |
| 2026-05-07 19:01 | 63.78830 | 19.60213 | 7553 ft | 179 kts | 32° |
| 2026-05-07 19:01 | 63.79809 | 19.61921 | 7290 ft | 176 kts | 32° |
| 2026-05-07 19:01 | 63.80773 | 19.63601 | 7028 ft | 174 kts | 32° |
| 2026-05-07 19:01 | 63.81722 | 19.65261 | 6771 ft | 171 kts | 32° |
| 2026-05-07 19:02 | 63.82661 | 19.66899 | 6513 ft | 170 kts | 32° |
| 2026-05-07 19:02 | 63.83594 | 19.68532 | 6240 ft | 169 kts | 32° |
| 2026-05-07 19:02 | 63.84526 | 19.70162 | 5977 ft | 169 kts | 32° |
| 2026-05-07 19:02 | 63.85455 | 19.71788 | 5708 ft | 168 kts | 32° |
| 2026-05-07 19:03 | 63.86378 | 19.73406 | 5446 ft | 168 kts | 32° |
| 2026-05-07 19:03 | 63.87298 | 19.75033 | 5183 ft | 168 kts | 33° |
| 2026-05-07 19:03 | 63.88215 | 19.76668 | 4924 ft | 167 kts | 33° |
| 2026-05-07 19:03 | 63.89129 | 19.78295 | 4658 ft | 167 kts | 33° |
| 2026-05-07 19:04 | 63.90046 | 19.79916 | 4391 ft | 167 kts | 33° |
| 2026-05-07 19:04 | 63.90958 | 19.81549 | 4129 ft | 167 kts | 33° |
| 2026-05-07 19:04 | 63.91869 | 19.83174 | 3866 ft | 166 kts | 33° |
| 2026-05-07 19:04 | 63.92758 | 19.84861 | 3601 ft | 168 kts | 43° |
| 2026-05-07 19:05 | 63.93297 | 19.87255 | 3329 ft | 175 kts | 72° |
| 2026-05-07 19:05 | 63.93447 | 19.90013 | 3084 ft | 176 kts | 81° |
| 2026-05-07 19:05 | 63.93580 | 19.92781 | 2826 ft | 175 kts | 78° |
| 2026-05-07 19:05 | 63.93751 | 19.95472 | 2569 ft | 174 kts | 77° |
| 2026-05-07 19:06 | 63.93808 | 19.98130 | 2467 ft | 165 kts | 101° |
| 2026-05-07 19:06 | 63.92372 | 20.01754 | 2469 ft | 152 kts | 137° |
| 2026-05-07 19:06 | 63.91594 | 20.03361 | 2466 ft | 150 kts | 139° |
| 2026-05-07 19:07 | 63.90812 | 20.04914 | 2470 ft | 148 kts | 139° |
| 2026-05-07 19:07 | 63.90046 | 20.06456 | 2468 ft | 147 kts | 138° |
| 2026-05-07 19:07 | 63.89282 | 20.07998 | 2467 ft | 147 kts | 140° |
| 2026-05-07 19:07 | 63.88518 | 20.09542 | 2409 ft | 146 kts | 138° |
| 2026-05-07 19:08 | 63.87756 | 20.11067 | 2203 ft | 146 kts | 140° |
| 2026-05-07 19:08 | 63.86998 | 20.12608 | 1997 ft | 146 kts | 140° |
| 2026-05-07 19:08 | 63.86237 | 20.14123 | 1792 ft | 145 kts | 140° |
| 2026-05-07 19:08 | 63.85492 | 20.15650 | 1587 ft | 144 kts | 139° |
| 2026-05-07 19:09 | 63.84759 | 20.17182 | 1407 ft | 142 kts | 140° |
| 2026-05-07 19:09 | 63.84008 | 20.18647 | 1210 ft | 142 kts | 144° |
| 2026-05-07 19:09 | 63.83291 | 20.19971 | 1053 ft | 127 kts | 142° |
| 2026-05-07 19:09 | 63.82664 | 20.21268 | 825 ft | 120 kts | 140° |
| 2026-05-07 19:10 | 63.82069 | 20.22518 | 662 ft | 113 kts | 139° |
| 2026-05-07 19:10 | 63.81526 | 20.23572 | 499 ft | 98 kts | 140° |
| 2026-05-07 19:10 | 63.81032 | 20.24565 | 379 ft | 92 kts | 140° |
| 2026-05-07 19:10 | 63.80570 | 20.25504 | 282 ft | 87 kts | 140° |
| 2026-05-07 19:11 | 63.80123 | 20.26392 | 161 ft | 85 kts | 141° |
| 2026-05-07 19:11 | 63.79701 | 20.27250 | 48 ft | 76 kts | 140° |
| 2026-05-07 19:11 | 63.79360 | 20.27917 | 30 ft | 51 kts | 139° |
| 2026-05-07 19:11 | 63.79161 | 20.28324 | 27 ft | 28 kts | 133° |
| 2026-05-07 19:12 | 63.79052 | 20.28541 | 26 ft | 17 kts | 134° |
| 2026-05-07 19:12 | 63.78946 | 20.28768 | 26 ft | 25 kts | 139° |
| 2026-05-07 19:12 | 63.78819 | 20.29013 | 23 ft | 13 kts | 142° |
| 2026-05-07 19:12 | 63.78812 | 20.29147 | 21 ft | 12 kts | 46° |
| 2026-05-07 19:13 | 63.78854 | 20.29274 | 20 ft | 6 kts | 68° |
| 2026-05-07 19:13 | 63.78859 | 20.29303 | 20 ft | 0 kts | 67° |
| 2026-05-07 19:14 | 63.78864 | 20.29326 | 20 ft | 6 kts | 66° |
| 2026-05-07 19:14 | 63.78887 | 20.29466 | 20 ft | 11 kts | 69° |
| 2026-05-07 19:15 | 63.78907 | 20.29584 | 19 ft | 1 kts | 66° |
| 2026-05-07 19:15 | 63.78907 | 20.29585 | 19 ft | 0 kts | 66° |
| 2026-05-07 19:15 | 63.78908 | 20.29586 | 19 ft | 1 kts | 66° |
| 2026-05-07 19:15 | 63.78908 | 20.29618 | 19 ft | 2 kts | 102° |
| 2026-05-07 19:16 | 63.78915 | 20.29618 | 19 ft | 2 kts | 273° |
| 2026-05-07 19:16 | 63.78898 | 20.29535 | 20 ft | 10 kts | 246° |
| 2026-05-07 19:16 | 63.78865 | 20.29341 | 20 ft | 17 kts | 248° |
| 2026-05-07 19:16 | 63.78821 | 20.29174 | 20 ft | 4 kts | 221° |
| 2026-05-07 19:17 | 63.78797 | 20.29084 | 22 ft | 9 kts | 274° |
| 2026-05-07 19:17 | 63.78857 | 20.28941 | 25 ft | 17 kts | 317° |
| 2026-05-07 19:17 | 63.78959 | 20.28732 | 26 ft | 23 kts | 316° |
| 2026-05-07 19:17 | 63.79093 | 20.28466 | 25 ft | 26 kts | 312° |
| 2026-05-07 19:18 | 63.79203 | 20.28521 | 25 ft | 20 kts | 44° |
| 2026-05-07 19:18 | 63.79229 | 20.28586 | 26 ft | 0 kts | 49° |
| 2026-05-07 19:19 | 63.79235 | 20.28600 | 25 ft | 5 kts | 49° |
| 2026-05-07 19:19 | 63.79240 | 20.28730 | 28 ft | 12 kts | 125° |
| 2026-05-07 19:20 | 63.79222 | 20.28849 | 25 ft | 10 kts | 43° |
| 2026-05-07 19:20 | 63.79248 | 20.28915 | 25 ft | 0 kts | 50° |
| 2026-05-07 19:20 | 63.79251 | 20.28922 | 25 ft | 0 kts | 52° |